createdAt,value
2023-03-26T00:00:34.274Z,6.01
2023-03-26T00:03:58.836Z,5.95
2023-03-26T00:07:20.874Z,6.01
2023-03-26T00:10:44.561Z,5.95
2023-03-26T00:14:06.691Z,5.93
2023-03-26T00:17:28.526Z,5.94
2023-03-26T00:20:52.192Z,5.92
2023-03-26T00:24:16.388Z,5.90
2023-03-26T00:27:38.312Z,5.91
2023-03-26T00:31:04.176Z,5.90
2023-03-26T00:34:26.923Z,5.79
2023-03-26T00:37:51.638Z,5.86
2023-03-26T00:41:22.938Z,5.85
2023-03-26T00:44:44.895Z,5.82
2023-03-26T00:48:06.972Z,5.80
2023-03-26T00:51:30.185Z,5.80
2023-03-26T00:54:53.852Z,5.79
2023-03-26T00:58:17.138Z,5.80
2023-03-26T01:01:40.031Z,5.81
2023-03-26T01:05:04.209Z,5.82
2023-03-26T01:08:31.150Z,5.75
2023-03-26T01:11:54.926Z,5.81
2023-03-26T01:15:16.786Z,5.82
2023-03-26T01:18:41.339Z,5.83
2023-03-26T01:22:05.263Z,5.82
2023-03-26T01:25:34.564Z,5.73
2023-03-26T01:29:01.792Z,5.78
2023-03-26T01:32:41.271Z,5.80
2023-03-26T01:36:09.539Z,5.77
2023-03-26T01:39:39.041Z,5.70
2023-03-26T01:43:10.611Z,5.78
2023-03-26T01:46:36.494Z,5.80
2023-03-26T01:49:58.545Z,5.75
2023-03-26T01:53:21.088Z,5.78
2023-03-26T01:56:50.793Z,5.81
2023-03-26T02:00:23.467Z,5.79
2023-03-26T02:03:51.394Z,5.78
2023-03-26T02:07:21.244Z,5.76
2023-03-26T02:10:45.884Z,5.76
2023-03-26T02:14:09.712Z,5.70
2023-03-26T02:17:33.280Z,5.71
2023-03-26T02:20:55.859Z,5.74
2023-03-26T02:24:18.740Z,5.76
2023-03-26T02:27:45.507Z,5.41
2023-03-26T02:31:09.827Z,5.75
2023-03-26T02:34:33.655Z,5.74
2023-03-26T02:37:55.635Z,5.72
2023-03-26T02:41:18.013Z,5.69
2023-03-26T02:44:40.959Z,5.64
2023-03-26T02:48:03.184Z,5.66
2023-03-26T02:51:27.622Z,5.62
2023-03-26T02:54:49.419Z,5.60
2023-03-26T02:58:12.381Z,5.61
2023-03-26T03:01:35.364Z,5.61
2023-03-26T03:05:01.977Z,5.63
2023-03-26T03:08:28.485Z,5.64
2023-03-26T03:11:50.841Z,5.63
2023-03-26T03:15:14.153Z,5.37
2023-03-26T03:18:36.772Z,5.57
2023-03-26T03:21:58.560Z,5.52
2023-03-26T03:25:22.414Z,5.53
2023-03-26T03:28:45.438Z,5.47
2023-03-26T03:32:07.332Z,5.46
2023-03-26T03:35:29.788Z,5.46
2023-03-26T03:38:52.237Z,5.45
2023-03-26T03:42:37.914Z,5.45
2023-03-26T03:46:02.093Z,5.47
2023-03-26T03:49:24.290Z,5.46
2023-03-26T03:52:46.619Z,5.47
2023-03-26T03:56:10.363Z,5.45
2023-03-26T03:59:32.352Z,5.41
2023-03-26T04:02:56.503Z,5.44
2023-03-26T04:06:19.770Z,5.34
2023-03-26T04:09:46.213Z,5.44
2023-03-26T04:13:08.227Z,5.44
2023-03-26T04:16:30.436Z,5.44
2023-03-26T04:19:55.208Z,5.45
2023-03-26T04:23:18.697Z,5.47
2023-03-26T04:26:41.271Z,5.37
2023-03-26T04:30:04.088Z,5.37
2023-03-26T04:33:25.950Z,5.45
2023-03-26T04:36:49.129Z,5.45
2023-03-26T04:40:15.595Z,5.41
2023-03-26T04:43:42.443Z,5.41
2023-03-26T04:47:04.352Z,5.42
2023-03-26T04:50:27.517Z,5.43
2023-03-26T04:53:54.471Z,5.40
2023-03-26T04:57:22.522Z,5.42
2023-03-26T05:00:44.694Z,5.44
2023-03-26T05:04:06.736Z,5.43
2023-03-26T05:07:28.661Z,5.39
2023-03-26T05:10:51.934Z,5.45
2023-03-26T05:14:14.040Z,5.42
2023-03-26T05:17:41.637Z,5.44
2023-03-26T05:21:04.260Z,5.43
2023-03-26T05:24:27.304Z,5.45
2023-03-26T05:27:50.827Z,5.46
2023-03-26T05:31:12.910Z,5.48
2023-03-26T05:34:34.969Z,5.49
2023-03-26T05:37:57.183Z,5.52
2023-03-26T05:41:20.186Z,5.49
2023-03-26T05:44:43.843Z,5.48
2023-03-26T05:48:06.287Z,5.48
2023-03-26T05:51:28.333Z,5.43
2023-03-26T05:54:50.684Z,5.46
2023-03-26T05:58:13.077Z,5.35
2023-03-26T06:01:36.715Z,5.34
2023-03-26T06:04:59.047Z,5.38
2023-03-26T06:08:21.076Z,5.37
2023-03-26T06:11:42.991Z,5.37
2023-03-26T06:15:05.277Z,5.36
2023-03-26T06:18:28.749Z,5.34
2023-03-26T06:21:50.763Z,5.33
2023-03-26T06:25:12.509Z,5.33
2023-03-26T06:28:35.469Z,5.33
2023-03-26T06:32:01.542Z,5.33
2023-03-26T06:35:33.004Z,5.33
2023-03-26T06:38:54.782Z,5.34
2023-03-26T06:42:16.479Z,5.33
2023-03-26T06:45:38.634Z,5.39
2023-03-26T06:49:00.553Z,5.40
2023-03-26T06:52:23.992Z,5.43
2023-03-26T06:55:46.401Z,5.49
2023-03-26T06:59:08.479Z,5.54
2023-03-26T07:02:30.242Z,5.58
2023-03-26T07:05:52.135Z,5.59
2023-03-26T07:09:15.883Z,5.67
2023-03-26T07:12:38.118Z,5.73
2023-03-26T07:15:59.933Z,5.83
2023-03-26T07:19:22.293Z,5.98
2023-03-26T07:22:44.642Z,6.14
2023-03-26T07:26:20.445Z,6.21
2023-03-26T07:29:50.415Z,6.25
2023-03-26T07:33:18.360Z,6.19
2023-03-26T07:36:47.365Z,6.26
2023-03-26T07:40:21.338Z,6.26
2023-03-26T07:43:59.494Z,6.24
2023-03-26T07:47:26.812Z,6.36
2023-03-26T07:50:49.328Z,6.35
2023-03-26T07:54:12.400Z,6.34
2023-03-26T07:57:44.591Z,6.40
2023-03-26T08:01:13.835Z,6.47
2023-03-26T08:04:47.782Z,6.49
2023-03-26T08:08:18.370Z,6.65
2023-03-26T08:11:49.128Z,6.48
2023-03-26T08:15:16.986Z,6.74
2023-03-26T08:18:52.086Z,6.75
2023-03-26T08:22:20.907Z,6.75
2023-03-26T08:25:52.567Z,6.75
2023-03-26T08:29:21.677Z,6.73
2023-03-26T08:32:43.998Z,6.73
2023-03-26T08:36:08.195Z,6.61
2023-03-26T08:39:30.677Z,6.61
2023-03-26T08:43:32.530Z,6.59
2023-03-26T08:47:21.647Z,6.56
2023-03-26T08:51:01.740Z,6.55
2023-03-26T08:54:48.422Z,6.57
2023-03-26T08:58:45.337Z,6.55
2023-03-26T09:02:42.288Z,6.73
2023-03-26T09:06:31.366Z,6.76
2023-03-26T09:10:34.864Z,6.78
2023-03-26T09:14:23.811Z,6.73
2023-03-26T09:18:31.034Z,6.75
2023-03-26T09:22:18.646Z,6.74
2023-03-26T09:26:01.131Z,6.73
2023-03-26T09:30:11.886Z,6.72
2023-03-26T09:33:56.114Z,6.70
2023-03-26T09:37:26.773Z,6.80
2023-03-26T09:40:57.305Z,6.88
2023-03-26T09:45:17.388Z,6.95
2023-03-26T09:49:15.760Z,6.99
2023-03-26T09:53:01.801Z,7.02
2023-03-26T09:56:34.419Z,7.07
2023-03-26T10:00:10.090Z,7.13
2023-03-26T10:03:43.301Z,7.16
2023-03-26T10:07:18.144Z,7.05
2023-03-26T10:10:50.601Z,7.14
2023-03-26T10:14:21.793Z,7.18
2023-03-26T10:17:56.195Z,7.16
2023-03-26T10:21:28.467Z,7.36
2023-03-26T10:25:16.772Z,7.61
2023-03-26T10:28:49.537Z,7.76
2023-03-26T10:32:23.554Z,7.82
2023-03-26T10:35:53.888Z,7.83
2023-03-26T10:39:36.850Z,7.84
2023-03-26T10:43:29.926Z,7.89
2023-03-26T10:50:55.104Z,7.80
2023-03-26T10:54:27.681Z,7.70
2023-03-26T10:57:54.310Z,7.51
2023-03-26T11:01:25.604Z,7.65
2023-03-26T11:04:56.214Z,7.65
2023-03-26T11:08:30.999Z,7.70
2023-03-26T11:11:59.904Z,7.80
2023-03-26T11:15:28.372Z,7.93
2023-03-26T11:18:59.377Z,8.04
2023-03-26T11:22:32.515Z,8.19
2023-03-26T11:26:09.823Z,8.34
2023-03-26T11:29:47.612Z,8.37
2023-03-26T11:33:14.233Z,8.38
2023-03-26T11:36:45.291Z,8.31
2023-03-26T11:40:15.689Z,8.28
2023-03-26T11:43:38.330Z,8.32
2023-03-26T11:47:05.864Z,8.35
2023-03-26T11:50:32.706Z,8.40
2023-03-26T11:53:57.889Z,8.36
2023-03-26T11:57:23.981Z,8.41
2023-03-26T12:00:46.329Z,8.31
2023-03-26T12:04:13.571Z,7.99
2023-03-26T12:07:37.441Z,7.82
2023-03-26T12:11:07.267Z,7.54
2023-03-26T12:14:32.082Z,7.14
2023-03-26T12:17:56.587Z,7.27
2023-03-26T12:21:20.916Z,7.25
2023-03-26T12:24:44.111Z,7.19
2023-03-26T12:28:18.974Z,7.23
2023-03-26T12:31:52.412Z,7.26
2023-03-26T12:35:19.750Z,7.48
2023-03-26T12:38:42.617Z,7.64
2023-03-26T12:44:43.007Z,7.77
2023-03-26T12:46:44.246Z,7.90
2023-03-26T12:49:37.899Z,7.91
2023-03-26T12:53:16.081Z,8.01
2023-03-26T12:56:44.760Z,7.99
2023-03-26T13:00:28.944Z,7.99
2023-03-26T13:04:09.848Z,7.94
2023-03-26T13:07:48.895Z,7.94
2023-03-26T13:11:17.911Z,7.89
2023-03-26T13:14:56.934Z,7.87
2023-03-26T13:18:28.757Z,7.78
2023-03-26T13:22:05.824Z,7.71
2023-03-26T13:25:36.677Z,7.63
2023-03-26T13:29:07.364Z,7.57
2023-03-26T13:32:44.278Z,7.63
2023-03-26T13:36:22.515Z,7.52
2023-03-26T13:40:00.922Z,7.65
2023-03-26T13:43:42.840Z,7.72
2023-03-26T13:47:10.804Z,7.74
2023-03-26T13:50:38.951Z,7.90
2023-03-26T13:54:07.325Z,7.94
2023-03-26T13:57:35.060Z,8.11
2023-03-26T14:01:07.734Z,8.18
2023-03-26T14:04:32.740Z,8.34
2023-03-26T14:08:01.748Z,8.50
2023-03-26T14:11:34.825Z,8.44
2023-03-26T14:15:04.116Z,8.47
2023-03-26T14:18:36.052Z,8.43
2023-03-26T14:22:13.303Z,8.41
2023-03-26T14:25:49.390Z,8.23
2023-03-26T14:29:33.110Z,8.09
2023-03-26T14:33:07.489Z,8.24
2023-03-26T14:36:49.943Z,8.00
2023-03-26T14:40:41.809Z,8.20
2023-03-26T14:44:48.684Z,8.22
2023-03-26T14:48:34.250Z,8.12
2023-03-26T14:52:02.919Z,8.11
2023-03-26T15:00:20.281Z,8.03
2023-03-26T15:04:19.440Z,8.00
2023-03-26T15:08:42.040Z,7.93
2023-03-26T15:12:13.523Z,7.86
2023-03-26T15:15:59.228Z,7.78
2023-03-26T15:20:19.863Z,7.71
2023-03-26T15:24:11.233Z,7.62
2023-03-26T15:27:54.107Z,7.44
2023-03-26T15:31:58.890Z,7.33
2023-03-26T15:35:45.765Z,7.23
2023-03-26T15:39:59.420Z,7.17
2023-03-26T15:43:24.459Z,7.20
2023-03-26T15:46:59.169Z,7.22
2023-03-26T15:50:33.319Z,7.22
2023-03-26T15:53:59.219Z,7.16
2023-03-26T15:57:30.704Z,7.19
2023-03-26T16:01:04.964Z,7.04
2023-03-26T16:04:41.522Z,6.98
2023-03-26T16:08:22.471Z,6.87
2023-03-26T16:11:53.682Z,6.73
2023-03-26T16:15:28.025Z,6.73
2023-03-26T16:18:56.603Z,6.68
2023-03-26T16:22:55.054Z,6.61
2023-03-26T16:26:21.457Z,6.53
2023-03-26T16:30:15.955Z,6.48
2023-03-26T16:33:39.382Z,6.42
2023-03-26T16:37:09.023Z,6.33
2023-03-26T16:40:36.700Z,6.32
2023-03-26T16:44:13.908Z,6.19
2023-03-26T16:47:44.155Z,6.23
2023-03-26T16:51:15.067Z,6.16
2023-03-26T16:54:53.814Z,6.15
2023-03-26T16:58:29.167Z,6.07
2023-03-26T17:02:00.768Z,6.07
2023-03-26T17:05:34.420Z,6.06
2023-03-26T17:09:04.465Z,6.01
2023-03-26T17:12:37.852Z,5.99
2023-03-26T17:16:07.445Z,5.91
2023-03-26T17:19:36.848Z,6.00
2023-03-26T17:23:10.715Z,5.87
2023-03-26T17:26:44.385Z,5.97
2023-03-26T17:30:35.461Z,5.92
2023-03-26T17:34:46.961Z,5.93
2023-03-26T17:38:49.855Z,5.81
2023-03-26T17:42:20.500Z,5.87
2023-03-26T17:46:03.411Z,5.86
2023-03-26T17:49:31.299Z,5.85
2023-03-26T17:52:58.295Z,5.86
2023-03-26T17:56:29.019Z,5.86
2023-03-26T17:59:54.570Z,5.86
2023-03-26T18:03:21.905Z,5.84
2023-03-26T18:07:09.051Z,5.66
2023-03-26T18:10:44.302Z,5.87
2023-03-26T18:14:28.980Z,5.85
2023-03-26T18:17:51.730Z,5.82
2023-03-26T18:21:23.024Z,5.86
2023-03-26T18:24:47.708Z,5.84
2023-03-26T18:28:15.556Z,5.81
2023-03-26T18:31:42.961Z,5.82
2023-03-26T18:35:19.054Z,5.78
2023-03-26T18:38:43.044Z,5.80
2023-03-26T18:42:05.955Z,5.78
2023-03-26T18:45:30.992Z,5.76
2023-03-26T18:48:55.344Z,5.74
2023-03-26T18:52:19.735Z,5.72
2023-03-26T18:55:44.948Z,5.46
2023-03-26T18:59:08.763Z,5.56
2023-03-26T19:02:31.210Z,5.65
2023-03-26T19:05:54.703Z,5.60
2023-03-26T19:09:30.889Z,5.59
2023-03-26T19:13:00.113Z,5.58
2023-03-26T19:16:28.339Z,5.57
2023-03-26T19:19:51.462Z,5.56
2023-03-26T19:23:37.783Z,5.57
2023-03-26T19:27:00.027Z,5.57
2023-03-26T19:30:30.629Z,5.57
2023-03-26T19:33:58.044Z,5.56
2023-03-26T19:37:23.042Z,5.54
2023-03-26T19:40:45.060Z,5.52
2023-03-26T19:44:21.726Z,5.51
2023-03-26T19:47:50.482Z,5.50
2023-03-26T19:51:21.144Z,5.40
2023-03-26T19:54:59.384Z,5.46
2023-03-26T19:58:22.711Z,5.43
2023-03-26T20:01:44.585Z,5.41
2023-03-26T20:05:16.702Z,5.28
2023-03-26T20:08:41.710Z,5.39
2023-03-26T20:12:03.642Z,5.34
2023-03-26T20:15:28.396Z,5.31
2023-03-26T20:18:51.475Z,5.15
2023-03-26T20:22:16.944Z,5.25
2023-03-26T20:25:49.290Z,5.22
2023-03-26T20:29:11.832Z,5.14
2023-03-26T20:32:34.454Z,5.09
2023-03-26T20:35:58.831Z,5.18
2023-03-26T20:39:22.847Z,5.17
2023-03-26T20:42:46.293Z,5.15
2023-03-26T20:46:11.019Z,5.14
2023-03-26T20:49:33.038Z,4.97
2023-03-26T20:52:59.913Z,4.84
2023-03-26T20:56:23.873Z,5.05
2023-03-26T20:59:46.312Z,5.07
2023-03-26T21:03:08.697Z,4.91
2023-03-26T21:06:30.421Z,4.93
2023-03-26T21:13:38.027Z,5.04
2023-03-26T21:17:00.697Z,5.03
2023-03-26T21:20:23.968Z,5.01
2023-03-26T21:23:59.535Z,4.97
2023-03-26T21:27:55.643Z,4.23
2023-03-26T21:31:21.221Z,4.85
2023-03-26T21:34:55.694Z,5.03
2023-03-26T21:38:22.424Z,4.99
2023-03-26T21:42:04.693Z,4.68
2023-03-26T21:45:28.810Z,5.01
2023-03-26T21:49:06.734Z,4.99
2023-03-26T21:52:30.297Z,4.97
2023-03-26T21:56:01.992Z,4.97
2023-03-26T21:59:58.719Z,4.75
2023-03-26T22:03:26.558Z,4.83
2023-03-26T22:06:56.847Z,4.83
2023-03-26T22:10:19.591Z,4.92
2023-03-26T22:13:44.278Z,4.87
2023-03-26T22:17:06.584Z,4.98
2023-03-26T22:20:28.796Z,4.97
2023-03-26T22:24:18.499Z,4.98
2023-03-26T22:27:43.870Z,4.99
2023-03-26T22:31:08.856Z,4.99
2023-03-26T22:34:31.885Z,4.99
2023-03-26T22:38:00.370Z,4.92
2023-03-26T22:41:24.772Z,4.96
2023-03-26T22:44:46.997Z,4.95
2023-03-26T22:48:08.911Z,4.97
2023-03-26T22:51:31.310Z,4.99
2023-03-26T22:54:53.239Z,5.00
2023-03-26T22:58:17.005Z,4.96
2023-03-26T23:01:39.386Z,4.97
2023-03-26T23:05:01.445Z,4.92
2023-03-26T23:08:23.647Z,4.89
2023-03-26T23:11:45.574Z,4.86
2023-03-26T23:15:10.803Z,4.72
2023-03-26T23:18:33.345Z,4.80
2023-03-26T23:21:55.676Z,4.79
2023-03-26T23:25:17.986Z,4.81
2023-03-26T23:28:41.124Z,4.68
2023-03-26T23:32:04.447Z,4.57
2023-03-26T23:35:48.216Z,4.63
2023-03-26T23:39:11.074Z,4.79
2023-03-26T23:42:34.612Z,4.76
2023-03-26T23:45:59.668Z,4.76
2023-03-26T23:49:22.693Z,4.77
2023-03-26T23:52:46.185Z,4.75
2023-03-26T23:56:13.373Z,4.72
2023-03-26T23:59:37.081Z,4.69
